sensor_id;sensor_type;location;lat;lon;timestamp;pressure;altitude;pressure_sealevel;temperature;humidity
22649;BME280;11491;41.942;24.220;2023-02-17T00:02:03;90690.72;;;-2.28;72.70
22649;BME280;11491;41.942;24.220;2023-02-17T00:04:32;90692.81;;;-2.30;72.91
22649;BME280;11491;41.942;24.220;2023-02-17T00:06:59;90687.75;;;-2.37;73.34
22649;BME280;11491;41.942;24.220;2023-02-17T00:09:26;90682.22;;;-2.41;73.32
22649;BME280;11491;41.942;24.220;2023-02-17T00:11:52;90679.59;;;-2.41;72.29
22649;BME280;11491;41.942;24.220;2023-02-17T00:14:19;90686.47;;;-2.34;72.57
22649;BME280;11491;41.942;24.220;2023-02-17T00:16:46;90691.44;;;-2.60;73.21
22649;BME280;11491;41.942;24.220;2023-02-17T00:19:14;90690.50;;;-2.49;72.62
22649;BME280;11491;41.942;24.220;2023-02-17T00:21:51;90684.25;;;-2.48;73.54
22649;BME280;11491;41.942;24.220;2023-02-17T00:24:18;90691.59;;;-2.45;73.23
22649;BME280;11491;41.942;24.220;2023-02-17T00:26:45;90685.69;;;-2.35;72.92
22649;BME280;11491;41.942;24.220;2023-02-17T00:29:12;90689.63;;;-2.32;72.31
22649;BME280;11491;41.942;24.220;2023-02-17T00:31:39;90685.66;;;-2.62;72.47
22649;BME280;11491;41.942;24.220;2023-02-17T00:34:05;90683.47;;;-2.70;73.39
22649;BME280;11491;41.942;24.220;2023-02-17T00:36:34;90683.03;;;-2.62;72.92
22649;BME280;11491;41.942;24.220;2023-02-17T00:39:00;90681.19;;;-2.62;72.95
22649;BME280;11491;41.942;24.220;2023-02-17T00:41:28;90687.81;;;-2.54;72.51
22649;BME280;11491;41.942;24.220;2023-02-17T00:43:55;90678.94;;;-2.53;72.01
22649;BME280;11491;41.942;24.220;2023-02-17T00:46:22;90667.75;;;-2.48;71.48
22649;BME280;11491;41.942;24.220;2023-02-17T00:48:49;90668.47;;;-2.53;71.97
22649;BME280;11491;41.942;24.220;2023-02-17T00:51:16;90661.44;;;-2.47;72.48
22649;BME280;11491;41.942;24.220;2023-02-17T00:53:44;90665.31;;;-2.55;72.30
22649;BME280;11491;41.942;24.220;2023-02-17T00:56:12;90652.66;;;-2.63;72.27
22649;BME280;11491;41.942;24.220;2023-02-17T00:58:38;90660.56;;;-2.58;72.16
22649;BME280;11491;41.942;24.220;2023-02-17T01:01:07;90654.66;;;-2.48;71.36
22649;BME280;11491;41.942;24.220;2023-02-17T01:03:33;90656.22;;;-2.47;71.59
22649;BME280;11491;41.942;24.220;2023-02-17T01:06:04;90645.97;;;-2.49;70.15
22649;BME280;11491;41.942;24.220;2023-02-17T01:08:31;90667.88;;;-2.60;70.88
22649;BME280;11491;41.942;24.220;2023-02-17T01:11:00;90663.00;;;-2.73;71.16
22649;BME280;11491;41.942;24.220;2023-02-17T01:13:26;90625.00;;;-3.03;72.26
22649;BME280;11491;41.942;24.220;2023-02-17T01:15:53;90650.34;;;-2.82;72.50
22649;BME280;11491;41.942;24.220;2023-02-17T01:18:22;90655.41;;;-2.75;71.66
22649;BME280;11491;41.942;24.220;2023-02-17T01:20:50;90652.31;;;-2.94;72.25
22649;BME280;11491;41.942;24.220;2023-02-17T01:23:17;90651.28;;;-2.93;72.25
22649;BME280;11491;41.942;24.220;2023-02-17T01:25:45;90651.81;;;-2.91;72.44
22649;BME280;11491;41.942;24.220;2023-02-17T01:28:16;90642.25;;;-2.80;72.55
22649;BME280;11491;41.942;24.220;2023-02-17T01:30:44;90642.06;;;-2.73;71.85
22649;BME280;11491;41.942;24.220;2023-02-17T01:33:11;90638.81;;;-2.86;71.56
22649;BME280;11491;41.942;24.220;2023-02-17T01:35:37;90647.50;;;-3.02;72.52
22649;BME280;11491;41.942;24.220;2023-02-17T01:38:04;90647.56;;;-2.97;72.99
22649;BME280;11491;41.942;24.220;2023-02-17T01:40:31;90641.84;;;-2.94;72.79
22649;BME280;11491;41.942;24.220;2023-02-17T01:42:57;90635.75;;;-2.77;71.61
22649;BME280;11491;41.942;24.220;2023-02-17T01:45:36;90638.59;;;-2.79;71.31
22649;BME280;11491;41.942;24.220;2023-02-17T01:48:07;90638.72;;;-2.91;71.87
22649;BME280;11491;41.942;24.220;2023-02-17T01:50:39;90632.34;;;-3.00;72.31
22649;BME280;11491;41.942;24.220;2023-02-17T01:53:08;90629.91;;;-2.85;71.00
22649;BME280;11491;41.942;24.220;2023-02-17T01:55:38;90622.59;;;-2.83;71.20
22649;BME280;11491;41.942;24.220;2023-02-17T01:58:08;90631.38;;;-2.94;72.10
22649;BME280;11491;41.942;24.220;2023-02-17T02:00:39;90619.31;;;-2.95;71.33
22649;BME280;11491;41.942;24.220;2023-02-17T02:03:09;90619.50;;;-3.01;71.50
22649;BME280;11491;41.942;24.220;2023-02-17T02:05:40;90623.63;;;-3.06;71.93
22649;BME280;11491;41.942;24.220;2023-02-17T02:08:08;90613.53;;;-2.97;71.99
22649;BME280;11491;41.942;24.220;2023-02-17T02:10:35;90613.53;;;-2.97;71.11
22649;BME280;11491;41.942;24.220;2023-02-17T02:13:02;90610.25;;;-2.87;70.25
22649;BME280;11491;41.942;24.220;2023-02-17T02:15:34;90613.59;;;-2.92;70.32
22649;BME280;11491;41.942;24.220;2023-02-17T02:18:08;90615.53;;;-3.04;70.74
22649;BME280;11491;41.942;24.220;2023-02-17T02:21:08;90617.00;;;-3.13;71.45
22649;BME280;11491;41.942;24.220;2023-02-17T02:32:56;90614.16;;;-3.12;70.59
22649;BME280;11491;41.942;24.220;2023-02-17T02:35:31;90623.91;;;-3.07;70.13
22649;BME280;11491;41.942;24.220;2023-02-17T02:38:02;90623.84;;;-3.12;69.89
22649;BME280;11491;41.942;24.220;2023-02-17T02:40:35;90607.91;;;-3.33;70.93
22649;BME280;11491;41.942;24.220;2023-02-17T02:43:04;90621.22;;;-3.34;71.04
22649;BME280;11491;41.942;24.220;2023-02-17T02:45:31;90624.66;;;-3.29;70.97
22649;BME280;11491;41.942;24.220;2023-02-17T02:48:00;90617.75;;;-3.40;71.89
22649;BME280;11491;41.942;24.220;2023-02-17T02:50:38;90627.09;;;-3.44;72.41
22649;BME280;11491;41.942;24.220;2023-02-17T02:53:24;90631.22;;;-3.48;72.65
22649;BME280;11491;41.942;24.220;2023-02-17T02:56:01;90629.28;;;-3.36;71.55
22649;BME280;11491;41.942;24.220;2023-02-17T02:58:37;90629.91;;;-3.29;71.19
22649;BME280;11491;41.942;24.220;2023-02-17T03:01:15;90625.53;;;-3.45;71.29
22649;BME280;11491;41.942;24.220;2023-02-17T03:03:53;90624.06;;;-3.36;71.12
22649;BME280;11491;41.942;24.220;2023-02-17T03:06:27;90627.91;;;-3.60;71.48
22649;BME280;11491;41.942;24.220;2023-02-17T03:08:59;90623.78;;;-3.56;71.67
22649;BME280;11491;41.942;24.220;2023-02-17T03:11:28;90625.53;;;-3.45;71.66
22649;BME280;11491;41.942;24.220;2023-02-17T03:14:00;90626.72;;;-3.31;70.70
22649;BME280;11491;41.942;24.220;2023-02-17T03:16:27;90631.97;;;-3.31;70.09
22649;BME280;11491;41.942;24.220;2023-02-17T03:18:55;90630.91;;;-3.52;70.98
22649;BME280;11491;41.942;24.220;2023-02-17T03:21:24;90621.72;;;-3.54;71.24
22649;BME280;11491;41.942;24.220;2023-02-17T03:23:51;90616.00;;;-3.51;72.04
22649;BME280;11491;41.942;24.220;2023-02-17T03:26:18;90615.53;;;-3.48;71.01
22649;BME280;11491;41.942;24.220;2023-02-17T03:28:45;90625.53;;;-3.45;71.63
22649;BME280;11491;41.942;24.220;2023-02-17T03:31:12;90622.97;;;-3.40;71.39
22649;BME280;11491;41.942;24.220;2023-02-17T03:33:38;90612.63;;;-3.30;71.52
22649;BME280;11491;41.942;24.220;2023-02-17T03:36:07;90618.16;;;-3.26;71.02
22649;BME280;11491;41.942;24.220;2023-02-17T03:38:34;90614.31;;;-3.18;70.41
22649;BME280;11491;41.942;24.220;2023-02-17T03:41:00;90618.59;;;-3.12;70.12
22649;BME280;11491;41.942;24.220;2023-02-17T03:43:27;90613.44;;;-3.07;69.97
22649;BME280;11491;41.942;24.220;2023-02-17T03:45:54;90609.59;;;-3.21;70.17
22649;BME280;11491;41.942;24.220;2023-02-17T03:48:21;90607.53;;;-3.19;70.35
22649;BME280;11491;41.942;24.220;2023-02-17T03:50:47;90610.19;;;-3.14;69.77
22649;BME280;11491;41.942;24.220;2023-02-17T03:53:15;90612.19;;;-3.21;69.90
22649;BME280;11491;41.942;24.220;2023-02-17T03:55:42;90601.56;;;-3.37;70.58
22649;BME280;11491;41.942;24.220;2023-02-17T03:58:09;90605.88;;;-3.26;70.59
22649;BME280;11491;41.942;24.220;2023-02-17T04:00:36;90610.09;;;-3.25;70.78
22649;BME280;11491;41.942;24.220;2023-02-17T04:03:03;90604.47;;;-3.33;70.75
22649;BME280;11491;41.942;24.220;2023-02-17T04:05:29;90612.03;;;-3.37;70.84
22649;BME280;11491;41.942;24.220;2023-02-17T04:07:56;90604.25;;;-3.32;70.86
22649;BME280;11491;41.942;24.220;2023-02-17T04:10:24;90611.19;;;-3.20;70.16
22649;BME280;11491;41.942;24.220;2023-02-17T04:12:51;90610.81;;;-3.07;69.67
22649;BME280;11491;41.942;24.220;2023-02-17T04:15:18;90611.78;;;-3.13;70.04
22649;BME280;11491;41.942;24.220;2023-02-17T04:17:44;90611.25;;;-3.15;70.29
22649;BME280;11491;41.942;24.220;2023-02-17T04:20:11;90613.88;;;-3.15;70.39
22649;BME280;11491;41.942;24.220;2023-02-17T04:22:38;90612.69;;;-3.25;70.07
22649;BME280;11491;41.942;24.220;2023-02-17T04:25:06;90613.72;;;-3.26;70.10
22649;BME280;11491;41.942;24.220;2023-02-17T04:27:34;90607.41;;;-3.30;70.69
22649;BME280;11491;41.942;24.220;2023-02-17T04:30:01;90616.75;;;-3.34;70.98
22649;BME280;11491;41.942;24.220;2023-02-17T04:32:31;90611.03;;;-3.31;70.40
22649;BME280;11491;41.942;24.220;2023-02-17T04:34:58;90615.69;;;-3.38;71.23
22649;BME280;11491;41.942;24.220;2023-02-17T04:37:25;90624.19;;;-3.26;70.05
22649;BME280;11491;41.942;24.220;2023-02-17T04:39:51;90620.16;;;-3.33;70.08
22649;BME280;11491;41.942;24.220;2023-02-17T04:42:18;90612.16;;;-3.27;69.76
22649;BME280;11491;41.942;24.220;2023-02-17T04:44:46;90613.06;;;-3.38;70.01
22649;BME280;11491;41.942;24.220;2023-02-17T04:47:13;90609.28;;;-3.47;70.94
22649;BME280;11491;41.942;24.220;2023-02-17T04:49:40;90613.97;;;-3.49;70.34
22649;BME280;11491;41.942;24.220;2023-02-17T04:52:06;90611.13;;;-3.48;70.66
22649;BME280;11491;41.942;24.220;2023-02-17T04:54:33;90611.59;;;-3.29;70.37
22649;BME280;11491;41.942;24.220;2023-02-17T04:57:00;90603.00;;;-3.46;70.57
22649;BME280;11491;41.942;24.220;2023-02-17T04:59:27;90603.50;;;-3.49;71.68
22649;BME280;11491;41.942;24.220;2023-02-17T05:01:55;90604.59;;;-3.45;71.87
22649;BME280;11491;41.942;24.220;2023-02-17T05:04:22;90602.06;;;-3.40;71.53
22649;BME280;11491;41.942;24.220;2023-02-17T05:06:48;90608.38;;;-3.36;70.77
22649;BME280;11491;41.942;24.220;2023-02-17T05:09:15;90604.84;;;-3.25;70.73
22649;BME280;11491;41.942;24.220;2023-02-17T05:11:42;90602.84;;;-3.17;70.43
22649;BME280;11491;41.942;24.220;2023-02-17T05:14:08;90605.56;;;-3.07;69.85
22649;BME280;11491;41.942;24.220;2023-02-17T05:16:35;90603.97;;;-3.08;69.98
22649;BME280;11491;41.942;24.220;2023-02-17T05:19:03;90610.31;;;-3.04;69.90
22649;BME280;11491;41.942;24.220;2023-02-17T05:21:30;90613.78;;;-2.98;69.96
22649;BME280;11491;41.942;24.220;2023-02-17T05:23:57;90601.97;;;-3.01;70.16
22649;BME280;11491;41.942;24.220;2023-02-17T05:26:24;90601.31;;;-3.13;70.74
22649;BME280;11491;41.942;24.220;2023-02-17T05:28:51;90603.69;;;-3.12;71.45
22649;BME280;11491;41.942;24.220;2023-02-17T05:31:18;90613.03;;;-2.94;70.14
22649;BME280;11491;41.942;24.220;2023-02-17T05:33:45;90604.13;;;-2.98;70.23
22649;BME280;11491;41.942;24.220;2023-02-17T05:36:13;90614.16;;;-2.90;69.80
22649;BME280;11491;41.942;24.220;2023-02-17T05:38:40;90617.88;;;-2.86;70.39
22649;BME280;11491;41.942;24.220;2023-02-17T05:41:06;90616.75;;;-2.90;70.95
22649;BME280;11491;41.942;24.220;2023-02-17T05:43:33;90618.66;;;-2.85;70.38
22649;BME280;11491;41.942;24.220;2023-02-17T05:46:01;90624.72;;;-2.79;70.31
22649;BME280;11491;41.942;24.220;2023-02-17T05:48:28;90631.28;;;-2.77;70.11
22649;BME280;11491;41.942;24.220;2023-02-17T05:50:55;90631.56;;;-2.73;70.35
22649;BME280;11491;41.942;24.220;2023-02-17T05:53:23;90622.59;;;-2.83;70.75
22649;BME280;11491;41.942;24.220;2023-02-17T05:55:50;90639.63;;;-2.58;70.50
22649;BME280;11491;41.942;24.220;2023-02-17T05:58:16;90634.75;;;-2.44;69.74
22649;BME280;11491;41.942;24.220;2023-02-17T06:00:43;90637.03;;;-2.53;69.71
22649;BME280;11491;41.942;24.220;2023-02-17T06:03:10;90638.72;;;-2.42;69.69
22649;BME280;11491;41.942;24.220;2023-02-17T06:05:37;90644.53;;;-2.34;70.10
22649;BME280;11491;41.942;24.220;2023-02-17T06:08:05;90641.78;;;-2.23;70.58
22649;BME280;11491;41.942;24.220;2023-02-17T06:10:33;90636.34;;;-2.16;70.22
22649;BME280;11491;41.942;24.220;2023-02-17T06:13:00;90635.47;;;-1.95;70.09
22649;BME280;11491;41.942;24.220;2023-02-17T06:15:27;90641.91;;;-1.75;69.12
22649;BME280;11491;41.942;24.220;2023-02-17T06:17:54;90643.00;;;-1.71;69.33
22649;BME280;11491;41.942;24.220;2023-02-17T06:20:21;90639.38;;;-1.60;69.30
22649;BME280;11491;41.942;24.220;2023-02-17T06:22:48;90641.03;;;-1.48;68.69
22649;BME280;11491;41.942;24.220;2023-02-17T06:25:15;90643.75;;;-1.33;67.76
22649;BME280;11491;41.942;24.220;2023-02-17T06:27:43;90640.50;;;-1.50;68.74
22649;BME280;11491;41.942;24.220;2023-02-17T06:30:10;90644.22;;;-1.46;69.33
22649;BME280;11491;41.942;24.220;2023-02-17T06:32:38;90648.78;;;-1.26;69.99
22649;BME280;11491;41.942;24.220;2023-02-17T06:35:05;90656.44;;;-1.15;70.08
22649;BME280;11491;41.942;24.220;2023-02-17T06:37:32;90661.25;;;-1.01;70.53
22649;BME280;11491;41.942;24.220;2023-02-17T06:39:58;90656.91;;;-0.70;68.82
22649;BME280;11491;41.942;24.220;2023-02-17T06:42:25;90644.78;;;-0.87;68.62
22649;BME280;11491;41.942;24.220;2023-02-17T06:44:53;90644.31;;;-0.68;68.52
22649;BME280;11491;41.942;24.220;2023-02-17T06:47:20;90641.47;;;-0.51;68.33
22649;BME280;11491;41.942;24.220;2023-02-17T06:49:47;90651.25;;;-0.31;67.92
22649;BME280;11491;41.942;24.220;2023-02-17T06:52:13;90659.94;;;-0.20;67.76
22649;BME280;11491;41.942;24.220;2023-02-17T06:54:40;90667.84;;;-0.10;68.65
22649;BME280;11491;41.942;24.220;2023-02-17T06:57:07;90658.41;;;0.09;68.37
22649;BME280;11491;41.942;24.220;2023-02-17T06:59:34;90654.75;;;0.31;66.24
22649;BME280;11491;41.942;24.220;2023-02-17T07:02:02;90653.16;;;0.50;66.20
22649;BME280;11491;41.942;24.220;2023-02-17T07:04:29;90650.25;;;0.62;65.67
22649;BME280;11491;41.942;24.220;2023-02-17T07:06:55;90651.03;;;0.83;65.48
22649;BME280;11491;41.942;24.220;2023-02-17T07:09:22;90613.66;;;0.76;65.05
22649;BME280;11491;41.942;24.220;2023-02-17T07:11:49;90658.88;;;1.03;66.01
22649;BME280;11491;41.942;24.220;2023-02-17T07:14:16;90649.38;;;1.13;65.96
22649;BME280;11491;41.942;24.220;2023-02-17T07:16:42;90643.53;;;1.21;65.63
22649;BME280;11491;41.942;24.220;2023-02-17T07:19:12;90642.50;;;1.22;65.22
22649;BME280;11491;41.942;24.220;2023-02-17T07:21:38;90644.53;;;1.40;64.61
22649;BME280;11491;41.942;24.220;2023-02-17T07:24:06;90645.56;;;1.44;64.67
22649;BME280;11491;41.942;24.220;2023-02-17T07:26:34;90655.53;;;1.58;63.92
22649;BME280;11491;41.942;24.220;2023-02-17T07:29:01;90650.69;;;1.75;64.45
22649;BME280;11491;41.942;24.220;2023-02-17T07:31:27;90650.03;;;1.99;64.35
22649;BME280;11491;41.942;24.220;2023-02-17T07:33:54;90654.66;;;2.22;63.67
22649;BME280;11491;41.942;24.220;2023-02-17T07:36:22;90650.81;;;2.44;62.37
22649;BME280;11491;41.942;24.220;2023-02-17T07:38:49;90653.28;;;2.64;62.12
22649;BME280;11491;41.942;24.220;2023-02-17T07:41:17;90649.34;;;2.91;61.80
22649;BME280;11491;41.942;24.220;2023-02-17T07:43:45;90643.97;;;3.01;61.15
22649;BME280;11491;41.942;24.220;2023-02-17T07:46:13;90657.13;;;3.06;61.63
22649;BME280;11491;41.942;24.220;2023-02-17T07:48:40;90653.06;;;3.38;62.09
22649;BME280;11491;41.942;24.220;2023-02-17T07:51:09;90656.34;;;3.78;61.37
22649;BME280;11491;41.942;24.220;2023-02-17T07:53:37;90651.06;;;4.16;60.46
22649;BME280;11491;41.942;24.220;2023-02-17T07:56:06;90645.91;;;4.43;59.19
22649;BME280;11491;41.942;24.220;2023-02-17T07:58:34;90639.38;;;4.54;57.86
22649;BME280;11491;41.942;24.220;2023-02-17T08:01:04;90650.81;;;4.69;58.85
22649;BME280;11491;41.942;24.220;2023-02-17T08:03:31;90656.09;;;5.02;58.45
22649;BME280;11491;41.942;24.220;2023-02-17T08:05:58;90650.47;;;5.36;57.87
22649;BME280;11491;41.942;24.220;2023-02-17T08:08:24;90655.41;;;5.70;55.57
22649;BME280;11491;41.942;24.220;2023-02-17T08:11:11;90651.81;;;5.94;54.39
22649;BME280;11491;41.942;24.220;2023-02-17T08:13:55;90647.34;;;6.17;53.99
22649;BME280;11491;41.942;24.220;2023-02-17T08:16:22;90650.59;;;6.50;52.98
22649;BME280;11491;41.942;24.220;2023-02-17T08:18:51;90649.28;;;6.61;50.64
22649;BME280;11491;41.942;24.220;2023-02-17T08:21:25;90649.28;;;6.84;51.56
22649;BME280;11491;41.942;24.220;2023-02-17T08:23:52;90647.91;;;6.86;49.17
22649;BME280;11491;41.942;24.220;2023-02-17T08:26:21;90648.25;;;6.71;49.71
22649;BME280;11491;41.942;24.220;2023-02-17T08:28:48;90639.84;;;6.78;49.09
22649;BME280;11491;41.942;24.220;2023-02-17T08:31:15;90651.19;;;7.15;48.59
22649;BME280;11491;41.942;24.220;2023-02-17T08:33:42;90656.75;;;7.58;48.09
22649;BME280;11491;41.942;24.220;2023-02-17T08:36:10;90658.94;;;8.05;47.66
22649;BME280;11491;41.942;24.220;2023-02-17T08:38:37;90652.75;;;8.35;43.49
22649;BME280;11491;41.942;24.220;2023-02-17T08:41:11;90654.41;;;8.80;43.58
22649;BME280;11491;41.942;24.220;2023-02-17T08:43:39;90650.13;;;9.22;43.96
22649;BME280;11491;41.942;24.220;2023-02-17T08:46:07;90646.72;;;9.60;43.26
22649;BME280;11491;41.942;24.220;2023-02-17T08:48:33;90649.06;;;9.70;42.52
22649;BME280;11491;41.942;24.220;2023-02-17T08:51:01;90639.72;;;9.94;40.82
22649;BME280;11491;41.942;24.220;2023-02-17T08:53:28;90652.22;;;10.02;42.44
22649;BME280;11491;41.942;24.220;2023-02-17T08:55:55;90650.66;;;10.61;42.39
22649;BME280;11491;41.942;24.220;2023-02-17T08:58:21;90657.06;;;11.31;41.09
22649;BME280;11491;41.942;24.220;2023-02-17T09:00:50;90652.56;;;12.02;40.92
22649;BME280;11491;41.942;24.220;2023-02-17T09:03:17;90657.25;;;12.66;40.19
22649;BME280;11491;41.942;24.220;2023-02-17T09:05:44;90663.41;;;13.20;38.93
22649;BME280;11491;41.942;24.220;2023-02-17T09:08:11;90654.25;;;13.77;37.98
22649;BME280;11491;41.942;24.220;2023-02-17T09:10:38;90646.56;;;14.23;36.16
22649;BME280;11491;41.942;24.220;2023-02-17T09:13:04;90650.56;;;14.61;35.51
22649;BME280;11491;41.942;24.220;2023-02-17T09:15:31;90652.44;;;14.76;31.57
22649;BME280;11491;41.942;24.220;2023-02-17T09:17:59;90645.34;;;14.36;31.93
22649;BME280;11491;41.942;24.220;2023-02-17T09:20:26;90642.56;;;14.17;32.81
22649;BME280;11491;41.942;24.220;2023-02-17T09:22:53;90645.31;;;14.68;33.62
22649;BME280;11491;41.942;24.220;2023-02-17T09:25:20;90644.13;;;15.01;33.82
22649;BME280;11491;41.942;24.220;2023-02-17T09:27:47;90648.44;;;15.60;33.21
22649;BME280;11491;41.942;24.220;2023-02-17T09:30:14;90645.09;;;16.09;31.03
22649;BME280;11491;41.942;24.220;2023-02-17T09:32:41;90640.94;;;16.35;30.34
22649;BME280;11491;41.942;24.220;2023-02-17T09:35:11;90642.09;;;16.61;27.02
22649;BME280;11491;41.942;24.220;2023-02-17T09:37:38;90636.53;;;16.50;28.60
22649;BME280;11491;41.942;24.220;2023-02-17T09:40:06;90638.94;;;16.55;29.29
22649;BME280;11491;41.942;24.220;2023-02-17T09:42:38;90632.22;;;15.02;23.32
22649;BME280;11491;41.942;24.220;2023-02-17T09:45:09;90636.19;;;14.73;23.83
22649;BME280;11491;41.942;24.220;2023-02-17T09:47:42;90637.84;;;14.46;23.81
22649;BME280;11491;41.942;24.220;2023-02-17T09:50:13;90626.25;;;14.41;24.87
22649;BME280;11491;41.942;24.220;2023-02-17T09:52:45;90629.44;;;14.79;26.61
22649;BME280;11491;41.942;24.220;2023-02-17T09:55:22;90628.16;;;14.92;25.19
22649;BME280;11491;41.942;24.220;2023-02-17T09:57:55;90617.50;;;14.96;24.42
22649;BME280;11491;41.942;24.220;2023-02-17T10:00:25;90621.75;;;15.55;24.79
22649;BME280;11491;41.942;24.220;2023-02-17T10:02:58;90614.88;;;15.19;21.66
22649;BME280;11491;41.942;24.220;2023-02-17T10:05:35;90613.91;;;14.72;22.28
22649;BME280;11491;41.942;24.220;2023-02-17T10:08:08;90622.00;;;14.92;22.89
22649;BME280;11491;41.942;24.220;2023-02-17T10:10:41;90616.66;;;15.31;24.16
22649;BME280;11491;41.942;24.220;2023-02-17T10:13:12;90598.06;;;15.64;24.12
22649;BME280;11491;41.942;24.220;2023-02-17T10:15:43;90606.13;;;16.53;22.98
22649;BME280;11491;41.942;24.220;2023-02-17T10:18:15;90604.72;;;16.89;20.41
22649;BME280;11491;41.942;24.220;2023-02-17T10:20:48;90594.34;;;16.65;19.91
22649;BME280;11491;41.942;24.220;2023-02-17T10:23:19;90601.91;;;17.09;23.64
22649;BME280;11491;41.942;24.220;2023-02-17T10:26:01;90593.19;;;18.27;23.10
22649;BME280;11491;41.942;24.220;2023-02-17T10:28:43;90586.28;;;18.82;18.43
22649;BME280;11491;41.942;24.220;2023-02-17T10:31:19;90577.63;;;19.24;19.34
22649;BME280;11491;41.942;24.220;2023-02-17T10:33:55;90581.34;;;19.68;18.48
22649;BME280;11491;41.942;24.220;2023-02-17T10:36:32;90582.69;;;20.60;18.30
22649;BME280;11491;41.942;24.220;2023-02-17T10:39:08;90569.03;;;21.10;17.69
22649;BME280;11491;41.942;24.220;2023-02-17T10:41:39;90565.47;;;21.49;16.25
22649;BME280;11491;41.942;24.220;2023-02-17T10:44:12;90565.28;;;21.85;18.04
22649;BME280;11491;41.942;24.220;2023-02-17T10:46:42;90548.09;;;22.02;15.57
22649;BME280;11491;41.942;24.220;2023-02-17T10:49:15;90555.66;;;22.40;17.32
22649;BME280;11491;41.942;24.220;2023-02-17T10:51:45;90548.00;;;22.17;15.21
22649;BME280;11491;41.942;24.220;2023-02-17T10:54:17;90529.38;;;22.11;16.47
22649;BME280;11491;41.942;24.220;2023-02-17T10:56:51;90551.50;;;21.40;16.27
22649;BME280;11491;41.942;24.220;2023-02-17T10:59:23;90538.41;;;20.13;16.09
22649;BME280;11491;41.942;24.220;2023-02-17T11:01:55;90535.09;;;19.39;17.60
22649;BME280;11491;41.942;24.220;2023-02-17T11:04:23;90541.06;;;18.93;16.96
22649;BME280;11491;41.942;24.220;2023-02-17T11:06:53;90530.03;;;19.34;17.49
22649;BME280;11491;41.942;24.220;2023-02-17T11:09:21;90536.63;;;19.40;19.22
22649;BME280;11491;41.942;24.220;2023-02-17T11:11:57;90523.66;;;20.07;19.04
22649;BME280;11491;41.942;24.220;2023-02-17T11:14:27;90526.75;;;20.44;17.78
22649;BME280;11491;41.942;24.220;2023-02-17T11:16:56;90526.38;;;20.78;19.34
22649;BME280;11491;41.942;24.220;2023-02-17T11:19:26;90522.75;;;21.32;20.31
22649;BME280;11491;41.942;24.220;2023-02-17T11:21:56;90517.88;;;21.79;20.20
22649;BME280;11491;41.942;24.220;2023-02-17T11:24:24;90521.44;;;22.35;19.73
22649;BME280;11491;41.942;24.220;2023-02-17T11:26:57;90510.69;;;22.13;19.22
22649;BME280;11491;41.942;24.220;2023-02-17T11:29:24;90519.16;;;22.30;19.30
22649;BME280;11491;41.942;24.220;2023-02-17T11:31:56;90517.16;;;22.41;19.74
22649;BME280;11491;41.942;24.220;2023-02-17T11:34:25;90510.09;;;21.81;19.67
22649;BME280;11491;41.942;24.220;2023-02-17T11:36:59;90515.06;;;21.12;20.06
22649;BME280;11491;41.942;24.220;2023-02-17T11:39:26;90517.50;;;20.67;20.97
22649;BME280;11491;41.942;24.220;2023-02-17T11:41:53;90512.06;;;20.35;21.29
22649;BME280;11491;41.942;24.220;2023-02-17T11:44:24;90505.03;;;20.52;21.42
22649;BME280;11491;41.942;24.220;2023-02-17T11:47:02;90510.47;;;20.88;21.48
22649;BME280;11491;41.942;24.220;2023-02-17T11:49:52;90509.31;;;20.31;21.00
22649;BME280;11491;41.942;24.220;2023-02-17T11:52:44;90508.13;;;19.89;22.20
22649;BME280;11491;41.942;24.220;2023-02-17T11:55:18;90503.88;;;19.88;22.24
22649;BME280;11491;41.942;24.220;2023-02-17T11:58:02;90500.41;;;19.88;22.52
22649;BME280;11491;41.942;24.220;2023-02-17T12:00:40;90504.66;;;20.39;22.05
22649;BME280;11491;41.942;24.220;2023-02-17T12:03:28;90505.84;;;20.70;21.94
22649;BME280;11491;41.942;24.220;2023-02-17T12:06:06;90501.97;;;20.42;22.54
22649;BME280;11491;41.942;24.220;2023-02-17T12:08:47;90491.84;;;20.72;22.73
22649;BME280;11491;41.942;24.220;2023-02-17T12:11:21;90501.13;;;20.96;22.29
22649;BME280;11491;41.942;24.220;2023-02-17T12:14:01;90495.97;;;21.26;21.76
22649;BME280;11491;41.942;24.220;2023-02-17T12:16:44;90481.50;;;21.51;21.65
22649;BME280;11491;41.942;24.220;2023-02-17T12:19:33;90477.63;;;21.52;21.16
22649;BME280;11491;41.942;24.220;2023-02-17T12:22:15;90476.09;;;21.44;21.67
22649;BME280;11491;41.942;24.220;2023-02-17T12:24:57;90481.78;;;20.69;21.75
22649;BME280;11491;41.942;24.220;2023-02-17T12:27:37;90476.34;;;20.69;21.28
22649;BME280;11491;41.942;24.220;2023-02-17T12:30:18;90468.56;;;20.74;22.12
22649;BME280;11491;41.942;24.220;2023-02-17T12:33:00;90475.50;;;20.97;21.85
22649;BME280;11491;41.942;24.220;2023-02-17T12:35:41;90473.59;;;20.79;21.81
22649;BME280;11491;41.942;24.220;2023-02-17T12:38:12;90470.13;;;20.39;21.91
22649;BME280;11491;41.942;24.220;2023-02-17T12:40:45;90465.50;;;19.68;23.22
22649;BME280;11491;41.942;24.220;2023-02-17T12:43:21;90473.63;;;19.72;22.45
22649;BME280;11491;41.942;24.220;2023-02-17T12:45:50;90469.78;;;19.80;23.38
22649;BME280;11491;41.942;24.220;2023-02-17T12:48:24;90473.13;;;19.30;22.66
22649;BME280;11491;41.942;24.220;2023-02-17T12:50:57;90472.28;;;19.08;23.66
22649;BME280;11491;41.942;24.220;2023-02-17T12:53:36;90473.00;;;18.98;23.42
22649;BME280;11491;41.942;24.220;2023-02-17T12:56:24;90477.38;;;19.28;22.89
22649;BME280;11491;41.942;24.220;2023-02-17T12:58:58;90484.06;;;19.63;23.73
22649;BME280;11491;41.942;24.220;2023-02-17T13:01:31;90481.03;;;19.93;23.51
22649;BME280;11491;41.942;24.220;2023-02-17T13:03:58;90472.47;;;19.87;22.51
22649;BME280;11491;41.942;24.220;2023-02-17T13:06:29;90484.91;;;19.95;23.94
22649;BME280;11491;41.942;24.220;2023-02-17T13:09:03;90486.47;;;20.18;23.10
22649;BME280;11491;41.942;24.220;2023-02-17T13:11:34;90482.56;;;20.33;23.07
22649;BME280;11491;41.942;24.220;2023-02-17T13:14:09;90491.09;;;20.14;22.48
22649;BME280;11491;41.942;24.220;2023-02-17T13:16:41;90491.88;;;19.96;24.20